Time;durP1;ratioP1;P1;durP2;ratioP2;P2;SDS_P1;SDS_P2;PMS_P1;PMS_P2;Temp;Humidity;BMP_temperature;BMP_pressure;BME280_temperature;BME280_humidity;BME280_pressure;Samples;Min_cycle;Max_cycle;Signal;HPM_P1;HPM_P2
2021/01/07 00:01:16;;;;;;;8.13;6.93;;;2.50;99.90;;;;;;5051508;28;20204;-78
2021/01/07 00:03:44;;;;;;;8.98;6.65;;;2.50;99.90;;;;;;5051186;28;20200;-78
2021/01/07 00:06:12;;;;;;;8.48;6.90;;;2.50;99.90;;;;;;5051888;28;20231;-79
2021/01/07 00:08:40;;;;;;;7.00;5.97;;;2.60;99.90;;;;;;5050971;28;20658;-79
2021/01/07 00:11:09;;;;;;;8.80;6.38;;;2.70;99.90;;;;;;5051916;28;20195;-79
2021/01/07 00:13:36;;;;;;;8.00;7.20;;;2.50;99.90;;;;;;5051690;28;20196;-79
2021/01/07 00:16:05;;;;;;;9.45;8.25;;;2.60;99.90;;;;;;5051789;28;20188;-79
2021/01/07 00:18:33;;;;;;;8.13;6.05;;;2.40;99.90;;;;;;5050388;28;20700;-78
2021/01/07 00:21:01;;;;;;;7.38;6.68;;;2.50;99.90;;;;;;5051052;28;20192;-79
2021/01/07 00:23:29;;;;;;;8.05;6.82;;;2.50;99.90;;;;;;5051471;28;20576;-78
2021/01/07 00:25:56;;;;;;;8.40;7.03;;;2.40;99.90;;;;;;5051676;28;20204;-78
2021/01/07 00:28:24;;;;;;;8.70;6.93;;;2.40;99.90;;;;;;5050916;28;20204;-78
2021/01/07 00:30:51;;;;;;;9.48;8.48;;;2.40;99.90;;;;;;5051098;28;20227;-79
2021/01/07 00:33:18;;;;;;;9.27;7.68;;;2.40;99.90;;;;;;5051421;28;20601;-78
2021/01/07 00:35:45;;;;;;;8.00;6.65;;;2.20;99.90;;;;;;5050876;28;20196;-79
2021/01/07 00:38:14;;;;;;;7.75;6.30;;;2.40;99.90;;;;;;5051282;28;20278;-78
2021/01/07 00:40:40;;;;;;;8.07;7.25;;;2.40;99.90;;;;;;5050293;28;20242;-79
2021/01/07 00:43:06;;;;;;;10.05;7.25;;;2.50;99.90;;;;;;5050970;28;20264;-79
2021/01/07 00:45:33;;;;;;;8.55;7.55;;;2.60;99.90;;;;;;5050029;28;20200;-78
2021/01/07 00:48:00;;;;;;;8.75;7.57;;;2.60;99.90;;;;;;5050030;28;20192;-79
2021/01/07 00:50:27;;;;;;;7.97;7.20;;;2.50;99.90;;;;;;5050954;28;20207;-78
2021/01/07 00:52:53;;;;;;;9.65;7.78;;;2.50;99.90;;;;;;5051058;28;20199;-78
2021/01/07 00:55:21;;;;;;;8.50;6.88;;;2.50;99.90;;;;;;5051533;28;20199;-78
2021/01/07 00:57:47;;;;;;;9.02;7.25;;;2.40;99.90;;;;;;5050912;28;20220;-79
2021/01/07 01:00:17;;;;;;;10.27;8.52;;;2.40;99.90;;;;;;5055193;28;20223;-79
2021/01/07 01:02:44;;;;;;;10.63;7.63;;;2.50;99.90;;;;;;5055285;28;20273;-78
2021/01/07 01:05:11;;;;;;;8.80;7.90;;;2.50;99.90;;;;;;5055546;28;20222;-79
2021/01/07 01:07:38;;;;;;;10.63;7.90;;;2.40;99.90;;;;;;5054924;28;20779;-79
2021/01/07 01:10:08;;;;;;;8.52;7.15;;;2.50;99.90;;;;;;5055236;28;20203;-79
2021/01/07 01:12:35;;;;;;;9.75;7.40;;;2.50;99.90;;;;;;5035116;28;20330;-78
2021/01/07 01:15:04;;;;;;;9.38;7.47;;;2.40;99.90;;;;;;5045458;28;20199;-79
2021/01/07 01:17:32;;;;;;;9.70;7.38;;;2.30;99.90;;;;;;5055180;28;20211;-79
2021/01/07 01:19:59;;;;;;;10.05;7.93;;;2.40;99.90;;;;;;5054596;28;20204;-78
2021/01/07 01:22:31;;;;;;;8.07;6.78;;;2.40;99.90;;;;;;5055062;28;20204;-78
2021/01/07 01:24:57;;;;;;;10.50;7.95;;;2.60;99.90;;;;;;5054430;28;20203;-78
2021/01/07 01:27:24;;;;;;;9.23;7.05;;;2.80;99.90;;;;;;5044172;28;20196;-78
2021/01/07 01:29:51;;;;;;;11.70;7.78;;;2.70;99.90;;;;;;5054876;28;20564;-78
2021/01/07 01:32:17;;;;;;;10.65;7.75;;;2.80;99.90;;;;;;5054916;28;20649;-79
2021/01/07 01:34:44;;;;;;;10.45;8.52;;;2.80;99.90;;;;;;5054145;28;20203;-79
2021/01/07 01:37:10;;;;;;;8.10;7.20;;;2.90;99.90;;;;;;5055334;28;20203;-79
2021/01/07 01:39:37;;;;;;;11.27;8.00;;;2.70;99.90;;;;;;5054100;28;20817;-78
2021/01/07 01:42:04;;;;;;;9.38;8.20;;;2.70;99.90;;;;;;5055073;28;20246;-79
2021/01/07 01:44:30;;;;;;;8.15;7.05;;;2.70;99.90;;;;;;5054485;28;20188;-78
2021/01/07 01:46:57;;;;;;;9.07;8.15;;;2.70;99.90;;;;;;5054276;28;20666;-79
2021/01/07 01:49:24;;;;;;;8.75;7.28;;;2.50;99.90;;;;;;5054797;28;20223;-79
2021/01/07 01:51:50;;;;;;;10.48;8.43;;;2.50;99.90;;;;;;5054388;28;20204;-78
2021/01/07 01:54:17;;;;;;;8.43;6.93;;;2.60;99.90;;;;;;5053740;28;20673;-78
2021/01/07 01:56:46;;;;;;;7.88;6.97;;;2.70;99.90;;;;;;5054337;28;20760;-79
2021/01/07 01:59:13;;;;;;;11.48;9.48;;;2.50;99.90;;;;;;5053361;28;20247;-79
2021/01/07 02:01:40;;;;;;;8.88;8.07;;;2.50;99.90;;;;;;5053458;28;20203;-79
2021/01/07 02:04:08;;;;;;;8.55;6.20;;;2.50;99.90;;;;;;5055484;28;20239;-79
2021/01/07 02:06:41;;;;;;;11.90;8.52;;;2.60;99.90;;;;;;5054350;28;20288;-79
2021/01/07 02:09:09;;;;;;;8.20;7.43;;;2.60;99.90;;;;;;5052986;28;20200;-79
2021/01/07 02:11:37;;;;;;;8.50;6.90;;;2.70;99.90;;;;;;5054548;28;20200;-79
2021/01/07 02:14:06;;;;;;;9.27;7.40;;;2.60;99.90;;;;;;5048565;28;20222;-79
2021/01/07 02:16:33;;;;;;;9.52;7.00;;;2.70;99.90;;;;;;5048556;28;20188;-78
2021/01/07 02:19:00;;;;;;;8.05;7.18;;;2.70;99.90;;;;;;5053115;28;20556;-78
2021/01/07 02:21:36;;;;;;;6.35;5.75;;;2.80;99.90;;;;;;5053667;28;20227;-79
2021/01/07 02:24:04;;;;;;;6.60;5.88;;;2.80;99.90;;;;;;5053570;28;20234;-78
2021/01/07 02:26:31;;;;;;;8.25;6.43;;;2.80;99.90;;;;;;5052961;28;20218;-78
2021/01/07 02:28:59;;;;;;;9.23;6.60;;;2.80;99.90;;;;;;5051839;28;20619;-78
2021/01/07 02:31:27;;;;;;;7.30;6.57;;;2.90;99.90;;;;;;5053309;28;20796;-78
2021/01/07 02:33:54;;;;;;;8.63;6.22;;;2.80;99.90;;;;;;5051629;28;20283;-79
2021/01/07 02:36:21;;;;;;;8.07;6.53;;;2.90;99.90;;;;;;5052917;28;20258;-78
2021/01/07 02:38:49;;;;;;;11.13;6.85;;;2.80;99.90;;;;;;5052979;28;20596;-78
2021/01/07 02:41:18;;;;;;;6.50;5.50;;;2.70;99.90;;;;;;5053805;28;20200;-79
2021/01/07 02:43:46;;;;;;;6.43;5.82;;;2.80;99.90;;;;;;5053957;28;20195;-78
2021/01/07 02:46:13;;;;;;;5.55;5.05;;;2.80;99.90;;;;;;5054092;28;20245;-79
2021/01/07 02:48:41;;;;;;;6.10;5.50;;;2.90;99.90;;;;;;5053199;28;20929;-79
2021/01/07 02:51:09;;;;;;;8.73;6.97;;;2.80;99.90;;;;;;5053833;28;20282;-78
2021/01/07 02:53:36;;;;;;;6.63;5.10;;;2.80;99.90;;;;;;5054165;28;20280;-78
2021/01/07 02:56:05;;;;;;;6.00;5.32;;;2.70;99.90;;;;;;5053941;28;20211;-79
2021/01/07 02:58:32;;;;;;;5.03;4.57;;;2.70;99.90;;;;;;5051872;28;20572;-79
2021/01/07 03:01:03;;;;;;;5.88;5.28;;;2.70;99.90;;;;;;5051195;28;20200;-79
2021/01/07 03:03:32;;;;;;;5.45;4.95;;;2.70;99.90;;;;;;5051567;28;20215;-78
2021/01/07 03:06:04;;;;;;;8.75;5.43;;;2.80;99.90;;;;;;5053788;28;20618;-79
2021/01/07 03:08:31;;;;;;;4.80;4.40;;;2.80;99.90;;;;;;5053254;28;20200;-79
2021/01/07 03:10:58;;;;;;;4.53;4.05;;;2.80;99.90;;;;;;5053068;28;20538;-79
2021/01/07 03:13:26;;;;;;;4.60;4.18;;;2.80;99.90;;;;;;5052759;28;20204;-79
2021/01/07 03:15:52;;;;;;;6.00;5.03;;;2.80;99.90;;;;;;5051813;28;20208;-79
2021/01/07 03:18:19;;;;;;;8.85;4.82;;;2.80;99.90;;;;;;5053026;28;20247;-78
2021/01/07 03:20:45;;;;;;;5.65;5.03;;;2.80;99.90;;;;;;5053238;28;20203;-79
2021/01/07 03:23:11;;;;;;;6.13;4.55;;;2.80;99.90;;;;;;5052998;28;20188;-79
2021/01/07 03:25:38;;;;;;;5.10;4.60;;;2.80;99.90;;;;;;5053630;28;20210;-79
2021/01/07 03:28:05;;;;;;;5.65;5.07;;;2.80;99.90;;;;;;5052626;28;20200;-79
2021/01/07 03:30:32;;;;;;;7.03;5.00;;;2.70;99.90;;;;;;5053291;28;20199;-78
2021/01/07 03:32:58;;;;;;;5.32;4.85;;;2.70;99.90;;;;;;5053193;28;20200;-78
2021/01/07 03:35:25;;;;;;;5.15;4.65;;;2.80;99.90;;;;;;5052974;28;20203;-78
2021/01/07 03:37:51;;;;;;;5.57;4.93;;;2.70;99.90;;;;;;5052422;28;20200;-79
2021/01/07 03:40:18;;;;;;;7.00;5.65;;;2.70;99.90;;;;;;5052649;28;20203;-78
2021/01/07 03:42:44;;;;;;;6.68;6.07;;;2.80;99.90;;;;;;5052704;28;20571;-79
2021/01/07 03:45:12;;;;;;;5.47;4.63;;;2.70;99.90;;;;;;5052651;28;20196;-79
2021/01/07 03:47:39;;;;;;;5.45;4.95;;;2.70;99.90;;;;;;5052587;28;20196;-78
2021/01/07 03:50:06;;;;;;;6.18;4.75;;;2.60;99.90;;;;;;5053090;28;20215;-78
2021/01/07 03:52:33;;;;;;;7.68;5.65;;;2.60;99.90;;;;;;5052743;28;20211;-79
2021/01/07 03:54:59;;;;;;;5.90;4.97;;;2.70;99.90;;;;;;5052348;28;20219;-78
2021/01/07 03:57:25;;;;;;;5.93;4.70;;;2.70;99.90;;;;;;5051379;28;20210;-79
2021/01/07 03:59:52;;;;;;;4.72;4.30;;;2.70;99.90;;;;;;5052636;28;20220;-79
2021/01/07 04:02:18;;;;;;;4.95;4.50;;;2.70;99.90;;;;;;5052446;28;20532;-78
2021/01/07 04:04:45;;;;;;;6.43;5.70;;;2.70;99.90;;;;;;5052915;28;20211;-78
2021/01/07 04:07:12;;;;;;;8.02;5.63;;;2.70;99.90;;;;;;5052141;28;20243;-79
2021/01/07 04:09:38;;;;;;;7.88;6.03;;;2.70;99.80;;;;;;5051837;28;20254;-79
2021/01/07 04:12:05;;;;;;;7.63;5.68;;;2.70;99.80;;;;;;5052196;28;20699;-78
2021/01/07 04:14:32;;;;;;;5.90;5.15;;;2.70;99.80;;;;;;5050686;28;20199;-79
2021/01/07 04:16:59;;;;;;;7.22;5.70;;;2.60;99.90;;;;;;5051645;28;20216;-79
2021/01/07 04:19:25;;;;;;;9.68;5.50;;;2.60;99.90;;;;;;5051010;28;20261;-79
2021/01/07 04:21:53;;;;;;;8.63;6.28;;;2.60;99.90;;;;;;5051533;28;20207;-79
2021/01/07 04:24:19;;;;;;;6.57;5.88;;;2.70;99.90;;;;;;5051015;28;20196;-79
2021/01/07 04:26:45;;;;;;;6.53;5.90;;;2.70;99.90;;;;;;5050279;28;20249;-79
2021/01/07 04:29:13;;;;;;;7.25;6.22;;;2.60;99.90;;;;;;5050986;28;20569;-79
2021/01/07 04:31:39;;;;;;;8.55;6.75;;;2.60;99.90;;;;;;5051540;28;20192;-78
2021/01/07 04:34:06;;;;;;;7.60;6.85;;;2.70;99.90;;;;;;5051671;28;20368;-79
2021/01/07 04:36:33;;;;;;;6.40;5.78;;;2.70;99.90;;;;;;5050649;28;20223;-78
2021/01/07 04:39:01;;;;;;;6.80;6.03;;;2.70;99.90;;;;;;5050120;28;20222;-79
2021/01/07 04:41:27;;;;;;;8.68;6.95;;;2.70;99.80;;;;;;5050962;28;20238;-79
2021/01/07 04:43:55;;;;;;;7.85;7.05;;;2.60;99.70;;;;;;5051295;28;20188;-79
2021/01/07 04:46:22;;;;;;;8.50;6.40;;;2.60;99.90;;;;;;5051198;28;20245;-79
2021/01/07 04:48:48;;;;;;;7.30;6.60;;;2.60;99.90;;;;;;5051085;28;20243;-78
2021/01/07 04:51:16;;;;;;;10.13;7.80;;;2.70;99.90;;;;;;5050805;28;20196;-78
2021/01/07 04:53:42;;;;;;;8.75;7.50;;;2.60;99.90;;;;;;5050882;28;20846;-79
2021/01/07 04:56:10;;;;;;;8.02;7.22;;;2.70;99.90;;;;;;5050929;28;20245;-79
2021/01/07 04:58:36;;;;;;;8.80;7.30;;;2.70;99.80;;;;;;5050320;28;20215;-78
2021/01/07 05:01:03;;;;;;;8.32;7.63;;;2.40;99.40;;;;;;5050868;28;20582;-79
2021/01/07 05:03:31;;;;;;;9.57;7.20;;;2.50;99.90;;;;;;5051508;28;20588;-79
2021/01/07 05:05:58;;;;;;;9.02;8.07;;;2.50;99.90;;;;;;5050920;28;20192;-78
2021/01/07 05:08:25;;;;;;;12.45;6.95;;;2.60;99.90;;;;;;5050546;28;20203;-78
2021/01/07 05:10:52;;;;;;;9.50;7.75;;;2.60;99.90;;;;;;5050262;28;20220;-78
2021/01/07 05:13:20;;;;;;;7.82;6.90;;;2.40;99.80;;;;;;5050718;28;20669;-78
2021/01/07 05:15:47;;;;;;;8.77;6.90;;;2.40;99.90;;;;;;5050751;28;20262;-79
2021/01/07 05:18:14;;;;;;;10.25;7.90;;;2.40;99.90;;;;;;5050709;28;20231;-79
2021/01/07 05:20:40;;;;;;;11.73;7.97;;;2.40;99.90;;;;;;5050346;28;20277;-79
2021/01/07 05:23:08;;;;;;;10.57;7.25;;;2.50;99.90;;;;;;5050694;28;20203;-78
2021/01/07 05:25:37;;;;;;;10.38;8.48;;;2.20;99.90;;;;;;5050946;28;20208;-79
2021/01/07 05:28:04;;;;;;;14.27;8.93;;;2.30;99.90;;;;;;5050165;28;20208;-79
2021/01/07 05:30:33;;;;;;;12.13;9.02;;;2.40;99.90;;;;;;5051204;28;20573;-79
2021/01/07 05:33:01;;;;;;;8.63;7.35;;;2.50;99.90;;;;;;5050451;28;20200;-79
2021/01/07 05:35:28;;;;;;;12.40;8.65;;;2.60;99.90;;;;;;5050711;28;20249;-79
2021/01/07 05:37:54;;;;;;;9.57;8.02;;;2.50;99.80;;;;;;5050593;28;20230;-79
2021/01/07 05:40:22;;;;;;;11.00;7.93;;;2.40;99.90;;;;;;5050561;28;20247;-79
2021/01/07 05:42:48;;;;;;;11.55;8.63;;;2.50;99.90;;;;;;5050957;28;20207;-79
2021/01/07 05:45:17;;;;;;;12.52;8.65;;;2.60;99.90;;;;;;5053622;28;20231;-79
2021/01/07 05:47:45;;;;;;;14.00;8.85;;;2.50;99.60;;;;;;5054332;28;20567;-80
2021/01/07 05:50:13;;;;;;;13.40;9.15;;;2.60;99.90;;;;;;5054578;28;20200;-80
2021/01/07 05:52:44;;;;;;;10.63;8.15;;;2.60;99.90;;;;;;5054683;28;20634;-80
2021/01/07 05:55:12;;;;;;;10.95;9.38;;;2.60;99.80;;;;;;5053926;28;20249;-79
2021/01/07 05:57:39;;;;;;;11.98;8.25;;;2.60;99.70;;;;;;5053633;28;20192;-80
2021/01/07 06:00:08;;;;;;;10.13;8.13;;;2.30;99.80;;;;;;5052906;28;20231;-79
2021/01/07 06:02:37;;;;;;;11.60;9.07;;;2.40;99.90;;;;;;5054077;28;20192;-79
2021/01/07 06:05:07;;;;;;;10.68;9.15;;;2.50;99.90;;;;;;5053497;28;20227;-80
2021/01/07 06:07:35;;;;;;;9.93;8.18;;;2.40;99.90;;;;;;5053908;28;20200;-79
2021/01/07 06:10:02;;;;;;;8.73;7.30;;;2.50;99.90;;;;;;5053740;28;20208;-79
2021/01/07 06:12:29;;;;;;;13.90;9.65;;;2.60;99.90;;;;;;5053858;28;20200;-79
2021/01/07 06:14:59;;;;;;;11.43;8.23;;;2.60;99.90;;;;;;5052155;28;20206;-79
2021/01/07 06:17:28;;;;;;;12.93;8.65;;;2.60;99.90;;;;;;5052914;28;20234;-80
2021/01/07 06:19:54;;;;;;;9.75;7.80;;;2.40;99.90;;;;;;5052734;28;20219;-79
2021/01/07 06:22:22;;;;;;;13.40;10.10;;;2.50;99.90;;;;;;5053641;28;20250;-79
2021/01/07 06:24:53;;;;;;;12.57;8.50;;;2.30;99.90;;;;;;5053647;28;20196;-79
2021/01/07 06:27:25;;;;;;;16.60;9.57;;;2.20;99.90;;;;;;5044253;28;20232;-79
2021/01/07 06:30:31;;;;;;;11.02;8.70;;;2.00;99.90;;;;;;5053158;28;20218;-79
2021/01/07 06:33:03;;;;;;;14.35;9.60;;;2.20;99.90;;;;;;5053795;28;20226;-79
2021/01/07 06:35:34;;;;;;;16.10;10.60;;;2.30;99.90;;;;;;5053487;28;20232;-79
2021/01/07 06:38:02;;;;;;;11.82;9.55;;;2.50;99.90;;;;;;5053066;28;20204;-79
2021/01/07 06:40:28;;;;;;;13.77;8.63;;;2.60;99.90;;;;;;5053654;28;20200;-80
2021/01/07 06:42:56;;;;;;;14.75;9.18;;;2.50;99.90;;;;;;5053011;28;20536;-79
2021/01/07 06:45:24;;;;;;;11.93;8.75;;;2.60;99.90;;;;;;5053451;28;20235;-80
2021/01/07 06:47:53;;;;;;;11.65;8.75;;;2.60;99.90;;;;;;5052778;28;20228;-79
2021/01/07 06:50:20;;;;;;;14.13;9.85;;;2.70;99.90;;;;;;5053018;28;20192;-80
2021/01/07 06:52:48;;;;;;;14.32;9.77;;;2.70;99.90;;;;;;5054371;28;20215;-80
2021/01/07 06:55:17;;;;;;;12.18;9.32;;;2.80;99.90;;;;;;5052922;28;20235;-79
2021/01/07 06:57:44;;;;;;;20.10;14.02;;;2.60;99.60;;;;;;5052780;28;20195;-78
2021/01/07 07:00:13;;;;;;;15.40;10.20;;;2.70;99.90;;;;;;5052814;28;20258;-79
2021/01/07 07:02:40;;;;;;;14.35;9.73;;;2.70;99.70;;;;;;5052841;28;20192;-79
2021/01/07 07:05:09;;;;;;;12.45;9.60;;;2.30;99.60;;;;;;5052912;28;20234;-79
2021/01/07 07:08:05;;;;;;;17.52;10.70;;;2.70;99.80;;;;;;5052703;28;20226;-79
2021/01/07 07:11:09;;;;;;;17.30;10.32;;;2.60;99.50;;;;;;5049340;28;20211;-79
2021/01/07 07:13:41;;;;;;;13.50;9.43;;;2.70;99.80;;;;;;5053546;28;20215;-79
2021/01/07 07:16:10;;;;;;;14.38;9.73;;;2.60;99.70;;;;;;5051563;28;20230;-79
2021/01/07 07:18:38;;;;;;;14.43;10.95;;;2.40;99.90;;;;;;5052740;28;20232;-79
2021/01/07 07:21:16;;;;;;;13.77;9.98;;;2.50;99.90;;;;;;5053165;28;20775;-79
2021/01/07 07:23:44;;;;;;;13.88;11.00;;;2.60;99.90;;;;;;5052568;28;20195;-79
2021/01/07 07:26:29;;;;;;;15.35;10.80;;;2.40;99.90;;;;;;5052770;28;20199;-79
2021/01/07 07:28:57;;;;;;;12.98;10.25;;;2.40;99.90;;;;;;5050706;28;20218;-79
2021/01/07 07:31:37;;;;;;;15.23;10.73;;;2.40;99.90;;;;;;5052286;28;20322;-79
2021/01/07 07:34:04;;;;;;;16.77;10.00;;;2.40;99.90;;;;;;5052166;28;20200;-79
2021/01/07 07:36:31;;;;;;;12.57;9.55;;;2.30;99.90;;;;;;5052774;28;20223;-79
2021/01/07 07:38:57;;;;;;;13.45;10.30;;;2.40;99.90;;;;;;5051677;28;20224;-79
2021/01/07 07:41:28;;;;;;;15.48;10.73;;;2.40;99.90;;;;;;5052192;28;20203;-79
2021/01/07 07:43:56;;;;;;;14.15;9.45;;;2.50;99.90;;;;;;5051772;28;20200;-79
2021/01/07 07:46:26;;;;;;;15.35;10.38;;;2.50;99.90;;;;;;5051789;28;20191;-79
2021/01/07 07:49:00;;;;;;;14.40;10.25;;;2.60;99.90;;;;;;5051696;28;20214;-79
2021/01/07 07:51:27;;;;;;;11.57;9.32;;;2.60;99.90;;;;;;5052224;28;20211;-80
2021/01/07 07:54:10;;;;;;;12.50;9.70;;;2.60;99.90;;;;;;5052228;28;20253;-80
2021/01/07 07:56:38;;;;;;;12.85;9.63;;;2.40;99.80;;;;;;5051738;28;20203;-79
2021/01/07 07:59:06;;;;;;;17.50;10.85;;;2.40;99.90;;;;;;5051510;28;20223;-79
2021/01/07 08:01:40;;;;;;;14.50;9.15;;;2.10;99.90;;;;;;5051592;28;20254;-79
2021/01/07 08:04:11;;;;;;;16.33;10.52;;;2.20;99.90;;;;;;5052734;28;20203;-79
2021/01/07 08:06:38;;;;;;;12.23;9.13;;;2.20;99.90;;;;;;5051327;28;20211;-79
2021/01/07 08:09:05;;;;;;;18.20;9.88;;;2.10;99.90;;;;;;5051186;28;20246;-79
2021/01/07 08:11:33;;;;;;;12.90;9.95;;;2.30;99.90;;;;;;5051527;28;20219;-79
2021/01/07 08:14:01;;;;;;;12.73;10.05;;;2.20;99.90;;;;;;5051993;28;20644;-80
2021/01/07 08:16:28;;;;;;;16.27;11.65;;;2.30;99.90;;;;;;5052236;28;20215;-79
2021/01/07 08:18:55;;;;;;;18.65;11.15;;;2.40;99.90;;;;;;5051346;28;20232;-79
2021/01/07 08:21:21;;;;;;;13.20;9.70;;;2.50;99.90;;;;;;5051562;28;20278;-79
2021/01/07 08:23:48;;;;;;;13.88;9.45;;;2.50;99.90;;;;;;5052306;28;20219;-80
2021/01/07 08:26:27;;;;;;;13.05;10.50;;;2.40;99.90;;;;;;5052691;28;20249;-79
2021/01/07 08:28:54;;;;;;;13.93;10.00;;;2.60;99.90;;;;;;5051884;28;20207;-79
2021/01/07 08:31:26;;;;;;;15.65;10.30;;;2.60;99.90;;;;;;5051503;28;20245;-79
2021/01/07 08:33:53;;;;;;;13.65;10.52;;;2.60;99.90;;;;;;5052580;28;20222;-79
2021/01/07 08:36:21;;;;;;;17.45;11.27;;;2.80;99.90;;;;;;5049387;28;20192;-80
2021/01/07 08:38:52;;;;;;;13.00;11.18;;;2.80;99.90;;;;;;5050358;28;20234;-79
2021/01/07 08:41:25;;;;;;;13.68;10.15;;;2.80;99.90;;;;;;5050487;28;20744;-79
2021/01/07 08:43:54;;;;;;;15.45;11.88;;;2.80;99.90;;;;;;5050883;28;20197;-79
2021/01/07 08:46:22;;;;;;;12.05;8.98;;;2.80;99.90;;;;;;5051771;28;20196;-79
2021/01/07 08:48:58;;;;;;;13.85;9.40;;;2.50;99.30;;;;;;5050823;28;20196;-79
2021/01/07 08:51:25;;;;;;;9.75;8.75;;;2.40;99.30;;;;;;5051027;28;20199;-79
2021/01/07 08:53:52;;;;;;;12.25;9.45;;;2.60;99.90;;;;;;5051753;28;20199;-80
2021/01/07 08:56:33;;;;;;;12.05;8.68;;;2.50;99.90;;;;;;5051508;28;20219;-79
2021/01/07 08:59:19;;;;;;;16.65;8.27;;;2.70;99.90;;;;;;5050393;28;20630;-79
2021/01/07 09:01:47;;;;;;;12.10;9.65;;;2.70;99.80;;;;;;5050984;28;20207;-79
2021/01/07 09:04:34;;;;;;;11.07;9.48;;;3.00;99.90;;;;;;5051533;28;20203;-80
2021/01/07 09:07:05;;;;;;;13.40;9.45;;;2.90;99.60;;;;;;5050396;28;20208;-78
2021/01/07 09:09:42;;;;;;;13.00;10.15;;;2.90;99.60;;;;;;5050824;28;20216;-79
2021/01/07 09:12:20;;;;;;;16.75;10.60;;;3.00;99.70;;;;;;5050727;28;20202;-79
2021/01/07 09:14:48;;;;;;;12.95;8.65;;;3.20;99.80;;;;;;5050568;28;20203;-79
2021/01/07 09:17:17;;;;;;;12.85;9.82;;;3.30;99.50;;;;;;5050601;28;20208;-80
2021/01/07 09:19:44;;;;;;;16.77;11.00;;;3.20;99.00;;;;;;5051878;28;20605;-79
2021/01/07 09:22:17;;;;;;;17.20;11.27;;;3.20;99.00;;;;;;5054755;28;20207;-79
2021/01/07 09:24:43;;;;;;;28.00;18.80;;;3.30;99.10;;;;;;5055146;28;20196;-79
2021/01/07 09:27:11;;;;;;;16.95;13.52;;;3.20;99.20;;;;;;5054419;28;20204;-79
2021/01/07 09:29:38;;;;;;;26.23;22.58;;;3.40;99.20;;;;;;5054783;28;20203;-79
2021/01/07 09:32:06;;;;;;;23.20;18.08;;;3.10;98.70;;;;;;5054384;28;20250;-79
2021/01/07 09:34:33;;;;;;;15.75;13.35;;;3.10;98.80;;;;;;5054175;28;20680;-79
2021/01/07 09:37:05;;;;;;;18.67;13.48;;;3.10;98.90;;;;;;5053487;28;20585;-80
2021/01/07 09:39:32;;;;;;;13.75;9.85;;;3.20;99.10;;;;;;5049742;28;20711;-78
2021/01/07 09:41:58;;;;;;;18.25;12.80;;;3.40;98.90;;;;;;5053384;28;20200;-79
2021/01/07 09:44:25;;;;;;;10.65;9.55;;;3.20;98.30;;;;;;5054416;28;20250;-79
2021/01/07 09:46:52;;;;;;;11.60;10.38;;;3.30;98.30;;;;;;5053973;28;20214;-79
2021/01/07 09:49:19;;;;;;;14.63;9.52;;;3.40;98.60;;;;;;5053962;28;20576;-79
2021/01/07 09:51:46;;;;;;;14.40;10.40;;;3.50;98.50;;;;;;5054707;28;20196;-79
2021/01/07 09:54:13;;;;;;;10.52;9.50;;;3.30;98.30;;;;;;5054758;28;20593;-78
2021/01/07 09:56:40;;;;;;;13.45;11.32;;;3.50;98.70;;;;;;5055131;28;20246;-79
2021/01/07 09:59:06;;;;;;;12.60;9.35;;;3.30;98.20;;;;;;5053969;28;20215;-79
2021/01/07 10:01:33;;;;;;;27.42;24.63;;;3.40;97.50;;;;;;5054261;28;20235;-78
2021/01/07 10:03:59;;;;;;;18.75;15.48;;;3.30;97.50;;;;;;5054073;28;20206;-79
2021/01/07 10:06:26;;;;;;;15.23;12.27;;;3.30;97.70;;;;;;5054420;28;20679;-78
2021/01/07 10:08:53;;;;;;;19.70;15.52;;;3.50;98.10;;;;;;5053983;28;20200;-79
2021/01/07 10:11:20;;;;;;;21.88;17.42;;;3.60;97.90;;;;;;5054182;28;20196;-79
2021/01/07 10:13:46;;;;;;;21.00;18.90;;;3.60;97.90;;;;;;5053543;28;20222;-78
2021/01/07 10:16:14;;;;;;;18.30;11.88;;;3.60;97.50;;;;;;5054012;28;20204;-78
2021/01/07 10:18:41;;;;;;;17.88;16.02;;;3.70;97.40;;;;;;5053427;28;20215;-78
2021/01/07 10:21:10;;;;;;;13.32;10.75;;;3.80;97.50;;;;;;5054233;28;20257;-79
2021/01/07 10:23:41;;;;;;;14.63;10.48;;;3.60;97.10;;;;;;5054247;28;20204;-77
2021/01/07 10:26:09;;;;;;;14.50;11.02;;;3.70;97.40;;;;;;5053875;28;20299;-78
2021/01/07 10:28:37;;;;;;;12.80;10.85;;;3.70;97.40;;;;;;5053273;28;20203;-79
2021/01/07 10:31:04;;;;;;;13.90;11.77;;;3.90;97.50;;;;;;5053162;28;20668;-78
2021/01/07 10:33:32;;;;;;;10.95;9.15;;;3.70;97.00;;;;;;5054264;28;20719;-78
2021/01/07 10:35:59;;;;;;;13.20;9.45;;;3.50;96.90;;;;;;5053665;28;20204;-78
2021/01/07 10:38:26;;;;;;;12.38;9.90;;;3.60;97.10;;;;;;5052873;28;20657;-78
2021/01/07 10:40:54;;;;;;;13.52;10.75;;;3.80;97.20;;;;;;5053364;28;20204;-78
2021/01/07 10:43:22;;;;;;;11.60;9.05;;;3.90;97.50;;;;;;5051868;28;20676;-79
2021/01/07 10:45:53;;;;;;;14.23;11.00;;;3.90;96.70;;;;;;5052461;28;20234;-78
2021/01/07 10:48:22;;;;;;;12.85;9.55;;;3.60;96.30;;;;;;5052842;28;20237;-77
2021/01/07 10:50:50;;;;;;;11.60;8.90;;;3.70;96.80;;;;;;5053304;28;20224;-78
2021/01/07 10:53:38;;;;;;;11.45;8.38;;;4.00;97.10;;;;;;5052948;28;20223;-78
2021/01/07 10:56:09;;;;;;;11.65;9.73;;;4.20;97.20;;;;;;5039383;28;20980;-78
2021/01/07 10:58:46;;;;;;;12.05;9.38;;;4.40;96.70;;;;;;5052061;28;20591;-78
2021/01/07 11:01:29;;;;;;;12.48;10.18;;;4.50;96.90;;;;;;5052439;28;20211;-78
2021/01/07 11:04:21;;;;;;;10.38;9.02;;;4.30;95.60;;;;;;5053006;28;20214;-79
2021/01/07 11:06:51;;;;;;;10.40;7.43;;;3.90;94.70;;;;;;5052961;28;20207;-78
2021/01/07 11:09:22;;;;;;;8.73;7.53;;;3.90;95.50;;;;;;5053288;28;20222;-79
2021/01/07 11:11:51;;;;;;;8.80;7.90;;;3.90;95.80;;;;;;5051845;28;20234;-78
2021/01/07 11:14:26;;;;;;;7.63;6.90;;;3.50;94.90;;;;;;5052347;28;20200;-78
2021/01/07 11:16:57;;;;;;;7.97;5.68;;;3.60;95.30;;;;;;5051968;28;20249;-78
2021/01/07 11:19:25;;;;;;;12.25;6.95;;;3.80;95.00;;;;;;5052815;28;20235;-78
2021/01/07 11:21:55;;;;;;;7.40;6.50;;;3.70;94.30;;;;;;5052673;28;20195;-78
2021/01/07 11:24:25;;;;;;;7.97;6.78;;;3.70;94.70;;;;;;5053058;28;20192;-79
2021/01/07 11:26:54;;;;;;;6.80;6.10;;;3.80;94.70;;;;;;5052355;28;20654;-78
2021/01/07 11:29:21;;;;;;;6.90;5.85;;;4.00;94.40;;;;;;5052222;28;20673;-78
2021/01/07 11:31:48;;;;;;;9.07;7.30;;;3.70;93.00;;;;;;5053046;28;20196;-78
2021/01/07 11:34:20;;;;;;;8.05;7.22;;;3.80;93.40;;;;;;5052666;28;20192;-78
2021/01/07 11:36:52;;;;;;;9.02;6.90;;;4.10;94.50;;;;;;5052450;28;20645;-78
2021/01/07 11:39:24;;;;;;;8.88;7.15;;;4.00;94.30;;;;;;5052539;28;20226;-78
2021/01/07 11:42:03;;;;;;;9.45;8.48;;;4.20;94.30;;;;;;5050202;28;20200;-79
2021/01/07 11:44:42;;;;;;;27.25;23.00;;;4.40;93.70;;;;;;5051675;28;20199;-79
2021/01/07 11:47:10;;;;;;;16.38;13.50;;;4.20;94.30;;;;;;5052159;28;20204;-78
2021/01/07 11:49:40;;;;;;;16.60;14.05;;;4.20;94.40;;;;;;5051669;28;20208;-79
2021/01/07 11:52:09;;;;;;;13.57;10.88;;;4.00;94.10;;;;;;5052003;28;20204;-79
2021/01/07 11:54:39;;;;;;;16.10;12.48;;;3.90;94.70;;;;;;5052049;28;20664;-79
2021/01/07 11:57:07;;;;;;;15.10;11.38;;;3.80;95.10;;;;;;5050544;28;20200;-79
2021/01/07 11:59:37;;;;;;;12.00;9.48;;;3.80;95.30;;;;;;5050240;28;20223;-79
2021/01/07 12:02:08;;;;;;;12.93;9.98;;;3.80;94.70;;;;;;5052165;28;20204;-79
2021/01/07 12:04:35;;;;;;;14.63;10.43;;;3.90;94.80;;;;;;5052542;28;20295;-78
2021/01/07 12:07:06;;;;;;;13.77;10.00;;;4.00;94.60;;;;;;5051929;28;20335;-78
2021/01/07 12:09:37;;;;;;;11.48;8.57;;;3.90;94.50;;;;;;5051987;28;20285;-78
2021/01/07 12:12:06;;;;;;;12.98;8.35;;;4.00;94.70;;;;;;5051729;28;20202;-79
2021/01/07 12:14:42;;;;;;;10.70;8.70;;;4.20;95.50;;;;;;5051439;28;20240;-79
2021/01/07 12:17:09;;;;;;;10.63;8.27;;;4.30;94.50;;;;;;5050639;28;20203;-79
2021/01/07 12:19:36;;;;;;;9.38;7.72;;;4.60;94.80;;;;;;5051350;28;20708;-78
2021/01/07 12:22:04;;;;;;;9.95;7.75;;;4.70;94.40;;;;;;5051364;28;20781;-78
2021/01/07 12:24:32;;;;;;;16.45;10.88;;;4.80;94.10;;;;;;5051118;28;20235;-79
2021/01/07 12:26:58;;;;;;;11.20;8.85;;;4.50;93.80;;;;;;5050640;28;20199;-78
2021/01/07 12:29:25;;;;;;;12.68;9.10;;;4.90;94.80;;;;;;5051651;28;20283;-79
2021/01/07 12:31:54;;;;;;;12.27;8.95;;;4.90;94.60;;;;;;5051667;28;20199;-79
2021/01/07 12:34:36;;;;;;;12.77;9.07;;;4.80;94.30;;;;;;5052010;28;20685;-78
2021/01/07 12:37:10;;;;;;;8.20;7.03;;;4.50;94.10;;;;;;5050786;28;20196;-79
2021/01/07 12:39:45;;;;;;;10.27;7.78;;;4.60;95.20;;;;;;5052169;28;20219;-79
2021/01/07 12:42:13;;;;;;;9.00;7.65;;;4.40;93.90;;;;;;5050063;28;20593;-79
2021/01/07 12:44:46;;;;;;;10.00;8.40;;;4.40;94.50;;;;;;5052022;28;20265;-79
2021/01/07 12:47:13;;;;;;;9.90;7.43;;;4.40;94.50;;;;;;5051293;28;20512;-79
2021/01/07 12:49:41;;;;;;;10.50;8.93;;;4.30;94.50;;;;;;5051554;28;20204;-79
2021/01/07 12:52:09;;;;;;;9.68;8.15;;;4.40;95.00;;;;;;5051246;28;20235;-79
2021/01/07 12:54:36;;;;;;;10.75;8.63;;;4.30;94.80;;;;;;5050683;28;20673;-79
2021/01/07 12:57:11;;;;;;;11.07;9.07;;;4.50;95.10;;;;;;5051300;28;20200;-78